Time;durP1;ratioP1;P1;durP2;ratioP2;P2;SDS_P1;SDS_P2;PMS_P1;PMS_P2;Temp;Humidity;BMP_temperature;BMP_pressure;BME280_temperature;BME280_humidity;BME280_pressure;Samples;Min_cycle;Max_cycle;Signal;HPM_P1;HPM_P2
2021/12/13 00:01:41;;;;;;;42.15;29.00;;;;;;;-4.71;100.00;96950.63;5091567;28;20036;-63
2021/12/13 00:04:42;;;;;;;36.63;27.13;;;;;;;-4.75;100.00;96949.78;5089339;28;20077;-63
2021/12/13 00:07:15;;;;;;;40.25;28.38;;;;;;;-4.77;100.00;96951.53;5058917;28;20043;-63
2021/12/13 00:09:43;;;;;;;37.03;25.65;;;;;;;-4.80;100.00;96953.25;5092461;28;20036;-62
2021/12/13 00:12:09;;;;;;;32.03;24.10;;;;;;;-4.83;100.00;96961.88;5090538;28;20059;-63
2021/12/13 00:14:49;;;;;;;32.33;25.05;;;;;;;-4.90;100.00;96963.66;5092149;28;20039;-63
2021/12/13 00:17:25;;;;;;;31.80;22.33;;;;;;;-4.89;100.00;96956.78;5092057;28;20042;-63
2021/12/13 00:19:59;;;;;;;30.67;22.70;;;;;;;-4.91;100.00;96951.69;5091585;28;20035;-63
2021/12/13 00:22:45;;;;;;;29.35;23.35;;;;;;;-4.84;100.00;96949.91;5073816;28;20070;-63
2021/12/13 00:25:16;;;;;;;37.63;28.13;;;;;;;-4.84;100.00;96942.19;5091869;28;20055;-63
2021/12/13 00:27:57;;;;;;;38.58;27.25;;;;;;;-4.87;100.00;96947.34;5091826;28;20069;-63
2021/12/13 00:30:22;;;;;;;33.63;25.85;;;;;;;-4.92;100.00;96941.41;5090876;28;20430;-63
2021/12/13 00:33:06;;;;;;;35.55;25.58;;;;;;;-4.94;100.00;96932.88;5091767;28;20092;-63
2021/12/13 00:35:52;;;;;;;31.00;24.00;;;;;;;-4.91;100.00;96931.13;5091817;28;20039;-63
2021/12/13 00:38:24;;;;;;;32.88;23.60;;;;;;;-4.87;100.00;96929.34;5091393;28;20084;-62
2021/12/13 00:40:56;;;;;;;33.33;25.25;;;;;;;-4.89;100.00;96913.97;5091662;28;20036;-63
2021/12/13 00:43:34;;;;;;;32.55;24.63;;;;;;;-4.95;100.00;96910.63;5090562;28;20102;-63
2021/12/13 00:46:04;;;;;;;28.58;22.40;;;;;;;-4.99;100.00;96904.66;5087197;28;20024;-63
2021/12/13 00:48:33;;;;;;;31.52;22.48;;;;;;;-5.02;100.00;96902.13;5090659;28;20068;-63
2021/12/13 00:51:21;;;;;;;35.05;27.85;;;;;;;-4.94;100.00;96897.75;5083523;28;20097;-63
2021/12/13 00:53:50;;;;;;;41.97;32.95;;;;;;;-4.91;100.00;96908.00;5073821;28;20509;-62
2021/12/13 00:57:00;;;;;;;39.33;30.02;;;;;;;-4.96;100.00;96903.78;5091498;28;20457;-62
2021/12/13 00:59:33;;;;;;;41.47;30.42;;;;;;;-5.05;100.00;96904.72;5045108;28;20047;-62
2021/12/13 01:02:01;;;;;;;50.00;34.58;;;;;;;-5.08;100.00;96907.34;5091183;28;20044;-62
2021/12/13 01:04:48;;;;;;;50.30;34.03;;;;;;;-5.11;100.00;96897.09;5091564;28;20425;-63
2021/12/13 01:07:32;;;;;;;44.10;32.60;;;;;;;-5.15;100.00;96898.84;5091179;28;20055;-63
2021/12/13 01:10:35;;;;;;;32.40;24.08;;;;;;;-5.13;100.00;96888.56;5090854;28;20070;-62
2021/12/13 01:13:00;;;;;;;36.42;25.70;;;;;;;-5.09;100.00;96888.50;5090875;28;20048;-62
2021/12/13 01:15:37;;;;;;;28.30;22.25;;;;;;;-5.06;100.00;96893.63;5090913;28;20036;-62
2021/12/13 01:18:29;;;;;;;24.77;18.83;;;;;;;-4.98;100.00;96882.41;5061740;28;20089;-62
2021/12/13 01:21:16;;;;;;;25.58;19.60;;;;;;;-4.96;100.00;96880.66;5091050;28;20110;-63
2021/12/13 01:23:49;;;;;;;30.80;20.95;;;;;;;-4.98;100.00;96875.53;5090600;28;20130;-62
2021/12/13 01:26:37;;;;;;;24.23;17.90;;;;;;;-4.99;100.00;96871.25;5090681;28;20119;-62
2021/12/13 01:29:10;;;;;;;21.83;16.20;;;;;;;-4.96;100.00;96868.69;5067139;28;20461;-63
2021/12/13 01:31:50;;;;;;;19.52;15.23;;;;;;;-4.88;100.00;96866.00;5090450;28;20036;-62
2021/12/13 01:34:16;;;;;;;19.60;15.23;;;;;;;-4.81;100.00;96861.63;5089452;28;20024;-62
2021/12/13 01:37:12;;;;;;;22.13;15.20;;;;;;;-4.77;100.00;96874.44;5090936;28;20399;-63
2021/12/13 01:39:41;;;;;;;20.20;16.17;;;;;;;-4.77;100.00;96863.28;5089313;28;20028;-63
2021/12/13 01:42:15;;;;;;;23.30;16.42;;;;;;;-4.84;100.00;96867.69;5088396;28;20039;-62
2021/12/13 01:44:49;;;;;;;23.17;15.25;;;;;;;-4.90;100.00;96860.88;5089868;28;20040;-63
2021/12/13 01:47:22;;;;;;;20.38;15.98;;;;;;;-4.96;100.00;96878.94;5090094;28;20028;-63
2021/12/13 01:49:55;;;;;;;24.23;17.65;;;;;;;-5.00;100.00;96877.25;5090056;28;20051;-62
2021/12/13 01:52:30;;;;;;;23.83;16.85;;;;;;;-4.99;100.00;96890.97;5090437;28;20047;-63
2021/12/13 01:54:58;;;;;;;20.48;16.52;;;;;;;-4.96;100.00;96894.38;5090708;28;20119;-62
2021/12/13 01:57:40;;;;;;;20.20;14.77;;;;;;;-5.03;100.00;96895.28;5090306;28;20028;-62
2021/12/13 02:00:44;;;;;;;18.02;14.13;;;;;;;-5.04;100.00;96901.28;5086327;28;20019;-62
2021/12/13 02:03:11;;;;;;;16.33;14.02;;;;;;;-5.05;100.00;96900.47;5089943;28;20039;-62
2021/12/13 02:05:37;;;;;;;22.45;13.45;;;;;;;-5.02;100.00;96904.69;5089920;28;20044;-62
2021/12/13 02:08:14;;;;;;;17.60;13.02;;;;;;;-4.99;100.00;96912.34;5089965;28;20115;-62
2021/12/13 02:10:49;;;;;;;18.67;14.05;;;;;;;-4.96;100.00;96909.78;5085982;28;20058;-62
2021/12/13 02:13:22;;;;;;;15.05;12.80;;;;;;;-4.93;100.00;96917.44;5090302;28;20042;-62
2021/12/13 02:18:41;;;;;;;15.05;13.35;;;;;;;-4.97;100.00;96907.22;5090160;28;20062;-62
2021/12/13 02:21:18;;;;;;;15.30;13.10;;;;;;;-4.95;100.00;96911.47;5072599;28;20093;-62
2021/12/13 02:23:48;;;;;;;24.42;17.80;;;;;;;-4.94;100.00;96892.63;5085660;28;20074;-63
2021/12/13 02:26:14;;;;;;;19.52;16.13;;;;;;;-4.92;100.00;96902.88;5089587;28;20025;-62
2021/12/13 02:28:42;;;;;;;18.23;15.43;;;;;;;-4.90;100.00;96899.44;5090020;28;20059;-62
2021/12/13 02:31:23;;;;;;;20.85;17.95;;;;;;;-4.90;100.00;96901.13;5089526;28;20475;-62
2021/12/13 02:33:58;;;;;;;21.70;16.10;;;;;;;-4.93;100.00;96899.47;5089666;28;20042;-62
2021/12/13 02:36:35;;;;;;;21.60;14.70;;;;;;;-4.95;100.00;96897.78;5089750;28;20059;-62
2021/12/13 02:39:08;;;;;;;18.85;14.57;;;;;;;-4.98;100.00;96892.69;5089224;28;20166;-62
2021/12/13 02:41:34;;;;;;;15.35;12.68;;;;;;;-5.01;100.00;96888.41;5081487;28;20380;-62
2021/12/13 02:44:05;;;;;;;16.75;14.40;;;;;;;-5.04;100.00;96891.00;5089565;28;20043;-62
2021/12/13 02:46:33;;;;;;;18.00;13.43;;;;;;;-5.05;100.00;96886.75;5089571;28;20550;-62
2021/12/13 02:49:04;;;;;;;18.48;14.10;;;;;;;-5.08;100.00;96879.06;5089580;28;20070;-62
2021/12/13 02:51:38;;;;;;;15.90;14.13;;;;;;;-5.07;100.00;96871.38;5071157;28;20036;-63
2021/12/13 02:54:07;;;;;;;17.63;13.38;;;;;;;-5.06;100.00;96873.06;5089802;28;20445;-62
2021/12/13 02:56:37;;;;;;;16.23;13.93;;;;;;;-5.06;100.00;96874.78;5089191;28;20032;-62
2021/12/13 02:59:07;;;;;;;16.40;13.50;;;;;;;-5.07;100.00;96875.66;5089465;28;20086;-62
2021/12/13 03:01:42;;;;;;;16.17;12.75;;;;;;;-5.10;100.00;96867.97;5081278;28;20503;-63
2021/12/13 03:04:11;;;;;;;13.45;12.05;;;;;;;-5.14;100.00;96867.16;5088565;28;20032;-62
2021/12/13 03:06:41;;;;;;;14.80;10.90;;;;;;;-5.18;100.00;96866.34;5089234;28;20566;-63
2021/12/13 03:09:11;;;;;;;14.10;10.60;;;;;;;-5.18;100.00;96857.78;5089067;28;20040;-63
2021/12/13 03:11:37;;;;;;;12.15;9.90;;;;;;;-5.19;100.00;96864.66;5073599;28;20036;-62
2021/12/13 03:14:06;;;;;;;11.73;9.38;;;;;;;-5.20;100.00;96852.66;5093211;28;20038;-62
2021/12/13 03:17:09;;;;;;;12.20;10.48;;;;;;;-5.21;100.00;96858.66;5093854;28;20123;-62
2021/12/13 03:19:40;;;;;;;11.13;9.48;;;;;;;-5.16;100.00;96850.06;5092527;28;20077;-62
2021/12/13 03:22:20;;;;;;;11.68;10.48;;;;;;;-5.16;100.00;96858.63;5092364;28;20043;-62
2021/12/13 03:25:04;;;;;;;12.20;10.82;;;;;;;-5.16;100.00;96844.94;5093011;28;20032;-63
2021/12/13 03:28:09;;;;;;;13.43;10.50;;;;;;;-5.19;100.00;96846.69;5093416;28;20044;-62
2021/12/13 03:30:46;;;;;;;10.32;9.32;;;;;;;-5.21;100.00;96832.97;5052597;28;20040;-62
2021/12/13 03:33:14;;;;;;;11.63;10.32;;;;;;;-5.24;100.00;96838.16;5092790;28;20351;-62
2021/12/13 03:35:54;;;;;;;11.63;9.63;;;;;;;-5.29;100.00;96834.78;5092735;28;20032;-62
2021/12/13 03:38:25;;;;;;;11.80;10.30;;;;;;;-5.31;100.00;96831.41;5092731;28;20035;-62
2021/12/13 03:40:51;;;;;;;15.52;10.57;;;;;;;-5.29;100.00;96836.53;5074357;28;20525;-62
2021/12/13 03:43:27;;;;;;;10.65;9.65;;;;;;;-5.29;100.00;96839.09;5092695;28;20035;-62
2021/12/13 03:45:57;;;;;;;11.00;9.90;;;;;;;-5.32;100.00;96835.66;5092732;28;20123;-62
2021/12/13 03:48:26;;;;;;;11.18;9.80;;;;;;;-5.32;100.00;96829.69;5092476;28;20059;-62
2021/12/13 03:50:55;;;;;;;11.50;10.30;;;;;;;-5.36;100.00;96828.88;5092553;28;20046;-61
2021/12/13 03:53:25;;;;;;;11.68;9.13;;;;;;;-5.35;100.00;96828.00;5092002;28;20032;-61
2021/12/13 03:55:56;;;;;;;9.38;7.60;;;;;;;-5.32;100.00;96829.69;5092713;28;20036;-61
2021/12/13 03:58:24;;;;;;;10.48;8.25;;;;;;;-5.28;100.00;96828.78;5088260;28;20032;-61
2021/12/13 04:00:55;;;;;;;9.55;8.63;;;;;;;-5.25;100.00;96835.63;5092408;28;20025;-60
2021/12/13 04:03:24;;;;;;;9.30;8.48;;;;;;;-5.24;100.00;96839.88;5092142;28;20042;-61
2021/12/13 04:05:51;;;;;;;10.63;8.60;;;;;;;-5.25;100.00;96841.59;5092518;28;20062;-60
2021/12/13 04:08:19;;;;;;;10.35;9.25;;;;;;;-5.25;100.00;96851.88;5092185;28;20103;-61
2021/12/13 04:10:49;;;;;;;11.23;10.02;;;;;;;-5.24;100.00;96843.28;5092199;28;20051;-61
2021/12/13 04:13:19;;;;;;;10.32;9.27;;;;;;;-5.25;100.00;96841.59;5092448;28;20032;-61
2021/12/13 04:15:58;;;;;;;10.30;8.98;;;;;;;-5.28;100.00;96840.78;5073308;28;20154;-61
2021/12/13 04:21:20;;;;;;;11.75;10.15;;;;;;;-5.37;100.00;96844.31;5091635;28;20043;-60
2021/12/13 04:23:56;;;;;;;14.32;11.23;;;;;;;-5.36;100.00;96840.88;5091114;28;20044;-61
2021/12/13 04:26:22;;;;;;;15.70;11.30;;;;;;;-5.33;100.00;96839.09;5091724;28;20028;-60
2021/12/13 04:28:51;;;;;;;14.98;11.35;;;;;;;-5.35;100.00;96830.56;5091771;28;20039;-60
2021/12/13 04:31:20;;;;;;;13.52;10.15;;;;;;;-5.36;100.00;96838.31;5087458;28;20085;-61
2021/12/13 04:34:05;;;;;;;15.45;10.68;;;;;;;-5.36;100.00;96843.44;5091648;28;20395;-61
2021/12/13 04:36:32;;;;;;;12.88;9.05;;;;;;;-5.37;100.00;96837.44;5083281;28;20571;-61
2021/12/13 04:39:14;;;;;;;9.02;7.78;;;;;;;-5.37;100.00;96841.75;5091426;28;20071;-61
2021/12/13 04:41:45;;;;;;;16.15;8.90;;;;;;;-5.38;100.00;96840.03;5091577;28;20113;-61
2021/12/13 04:44:24;;;;;;;17.17;11.20;;;;;;;-5.36;100.00;96841.72;5091548;28;20529;-61
2021/12/13 04:46:52;;;;;;;17.65;11.65;;;;;;;-5.38;100.00;96850.31;5091524;28;20113;-61
2021/12/13 04:49:22;;;;;;;18.95;10.98;;;;;;;-5.40;100.00;96847.75;5091135;28;20043;-61
2021/12/13 04:51:55;;;;;;;18.13;10.13;;;;;;;-5.39;100.00;96844.31;5091448;28;20024;-61
2021/12/13 04:54:24;;;;;;;12.70;9.85;;;;;;;-5.37;100.00;96857.16;5083392;28;20043;-61
2021/12/13 04:56:50;;;;;;;13.30;10.43;;;;;;;-5.39;100.00;96858.88;5090896;28;20034;-61
2021/12/13 04:59:17;;;;;;;12.85;9.52;;;;;;;-5.35;100.00;96856.25;5090962;28;20032;-61
2021/12/13 05:01:47;;;;;;;12.20;9.75;;;;;;;-5.35;100.00;96861.38;5090951;28;20024;-61
2021/12/13 05:04:14;;;;;;;10.05;8.50;;;;;;;-5.41;100.00;96863.19;5082387;28;20459;-60
2021/12/13 05:06:41;;;;;;;13.23;11.10;;;;;;;-5.42;100.00;96864.00;5091363;28;20035;-60
2021/12/13 05:09:11;;;;;;;14.32;10.25;;;;;;;-5.40;100.00;96867.44;5091270;28;20495;-61
2021/12/13 05:12:02;;;;;;;10.60;9.40;;;;;;;-5.38;100.00;96870.84;5073438;28;20040;-60
2021/12/13 05:14:39;;;;;;;11.82;9.85;;;;;;;-5.39;100.00;96876.84;5079360;28;20042;-61
2021/12/13 05:17:27;;;;;;;14.93;10.68;;;;;;;-5.40;100.00;96872.59;5091017;28;20089;-61
2021/12/13 05:19:59;;;;;;;12.98;10.50;;;;;;;-5.42;100.00;96867.44;5090757;28;20043;-60
2021/12/13 05:22:25;;;;;;;11.32;10.10;;;;;;;-5.46;100.00;96866.63;5090130;28;20024;-60
2021/12/13 05:24:57;;;;;;;12.95;10.30;;;;;;;-5.43;100.00;96855.47;5090712;28;20613;-60
2021/12/13 05:27:25;;;;;;;11.48;10.20;;;;;;;-5.43;100.00;96864.88;5090700;28;20020;-60
2021/12/13 05:29:52;;;;;;;13.30;9.43;;;;;;;-5.49;100.00;96861.53;5090511;28;20036;-61
2021/12/13 05:32:30;;;;;;;10.80;9.18;;;;;;;-5.53;100.00;96861.56;5090498;28;20071;-61
2021/12/13 05:34:58;;;;;;;8.13;7.32;;;;;;;-5.53;100.00;96865.00;5081782;28;20024;-61
2021/12/13 05:37:38;;;;;;;7.00;5.85;;;;;;;-5.49;100.00;96869.22;5090511;28;20059;-61
2021/12/13 05:40:10;;;;;;;8.32;7.38;;;;;;;-5.45;100.00;96870.06;5090519;28;20118;-60
2021/12/13 05:42:39;;;;;;;8.15;7.43;;;;;;;-5.43;100.00;96872.59;5090366;28;20491;-60
2021/12/13 05:45:08;;;;;;;13.52;11.00;;;;;;;-5.41;100.00;96876.03;5086344;28;20055;-60
2021/12/13 05:47:35;;;;;;;16.67;14.20;;;;;;;-5.38;100.00;96875.97;5090633;28;20036;-60
2021/12/13 05:50:02;;;;;;;18.67;14.48;;;;;;;-5.37;100.00;96873.38;5069919;28;20496;-60
2021/12/13 05:52:39;;;;;;;15.38;12.07;;;;;;;-5.35;100.00;96881.09;5069906;28;20079;-60
2021/12/13 05:55:10;;;;;;;13.45;11.73;;;;;;;-5.38;100.00;96878.56;5070405;28;20043;-61
2021/12/13 05:57:42;;;;;;;14.07;11.63;;;;;;;-5.48;100.00;96875.22;5069766;28;20400;-60
2021/12/13 06:00:17;;;;;;;14.27;11.68;;;;;;;-5.49;100.00;96876.91;5051896;28;20377;-61
2021/12/13 06:03:21;;;;;;;12.98;11.15;;;;;;;-5.48;100.00;96878.63;5062588;28;20025;-61
2021/12/13 06:05:52;;;;;;;12.07;10.45;;;;;;;-5.47;100.00;96872.63;5068911;28;20044;-61
2021/12/13 06:08:25;;;;;;;13.55;9.95;;;;;;;-5.47;100.00;96877.75;5069671;28;20040;-61
2021/12/13 06:10:59;;;;;;;11.52;10.38;;;;;;;-5.48;100.00;96875.22;5069672;28;20116;-61
2021/12/13 06:13:42;;;;;;;18.60;15.20;;;;;;;-5.43;100.00;96863.19;5069570;28;20040;-61
2021/12/13 06:16:17;;;;;;;20.85;16.88;;;;;;;-5.39;100.00;96864.84;5067600;28;20063;-61
2021/12/13 06:19:09;;;;;;;17.42;14.57;;;;;;;-5.45;100.00;96862.34;5051844;28;20032;-60
2021/12/13 06:21:40;;;;;;;15.07;13.55;;;;;;;-5.50;100.00;96869.25;5014890;28;20048;-61
2021/12/13 06:24:06;;;;;;;16.25;14.27;;;;;;;-5.53;100.00;96854.72;5069325;28;20031;-60
2021/12/13 06:26:31;;;;;;;15.55;13.38;;;;;;;-5.61;100.00;96854.78;5069559;28;20024;-61
2021/12/13 06:29:00;;;;;;;18.77;15.02;;;;;;;-5.64;100.00;96859.09;5069410;28;20032;-61
2021/12/13 06:31:39;;;;;;;22.75;16.45;;;;;;;-5.67;100.00;96854.00;5068712;28;20047;-60
2021/12/13 06:34:09;;;;;;;17.75;15.93;;;;;;;-5.67;100.00;96854.00;5069478;28;20111;-60
2021/12/13 06:36:39;;;;;;;18.48;14.75;;;;;;;-5.65;100.00;96858.25;5069338;28;20047;-60
2021/12/13 06:39:11;;;;;;;16.88;14.48;;;;;;;-5.63;100.00;96866.78;5069363;28;20033;-61
2021/12/13 06:41:58;;;;;;;14.77;12.90;;;;;;;-5.66;100.00;96871.09;5051366;28;20029;-61
2021/12/13 06:44:35;;;;;;;13.90;12.52;;;;;;;-5.69;100.00;96879.69;5069071;28;20040;-61
2021/12/13 06:47:06;;;;;;;15.05;12.70;;;;;;;-5.65;100.00;96878.78;5068730;28;20039;-60
2021/12/13 06:49:38;;;;;;;16.02;13.52;;;;;;;-5.59;100.00;96882.16;5081137;28;20052;-60
2021/12/13 06:52:13;;;;;;;12.13;10.93;;;;;;;-5.55;100.00;96878.69;5089330;28;20571;-61
2021/12/13 06:54:55;;;;;;;11.07;9.40;;;;;;;-5.53;100.00;96872.69;5089786;28;20039;-61
2021/12/13 06:57:31;;;;;;;11.65;10.45;;;;;;;-5.51;100.00;96872.69;5089253;28;20475;-61
2021/12/13 07:00:21;;;;;;;15.60;13.95;;;;;;;-5.48;100.00;96881.19;5085201;28;20040;-60
2021/12/13 07:03:08;;;;;;;15.02;13.55;;;;;;;-5.47;100.00;96879.50;5086037;28;20533;-60
2021/12/13 07:05:45;;;;;;;14.30;12.90;;;;;;;-5.50;100.00;96871.81;5087081;28;20529;-60
2021/12/13 07:08:19;;;;;;;13.25;12.05;;;;;;;-5.54;100.00;96867.56;5089064;28;20067;-60
2021/12/13 07:10:55;;;;;;;13.13;11.35;;;;;;;-5.56;100.00;96872.72;5089216;28;20071;-60
2021/12/13 07:14:01;;;;;;;15.25;13.25;;;;;;;-5.56;100.00;96867.59;5069878;28;20036;-60
2021/12/13 07:16:33;;;;;;;18.33;16.50;;;;;;;-5.55;100.00;96866.72;5036498;28;20538;-60
2021/12/13 07:19:19;;;;;;;18.25;16.30;;;;;;;-5.53;100.00;96870.13;5089130;28;20039;-60
2021/12/13 07:21:58;;;;;;;;;;;;;;;-5.54;100.00;96875.25;5081939;28;20457;-60
2021/12/13 07:24:52;;;;;;;23.33;19.05;;;;;;;-5.60;100.00;96886.44;5085566;28;19966;-61
2021/12/13 07:27:45;;;;;;;25.10;20.38;;;;;;;-5.60;100.00;96881.31;5086766;28;20042;-60
2021/12/13 07:30:38;;;;;;;24.13;19.75;;;;;;;-5.55;100.00;96888.97;5084607;28;20036;-60
2021/12/13 07:33:07;;;;;;;20.50;16.00;;;;;;;-5.52;100.00;96889.78;5077810;28;20044;-60
2021/12/13 07:35:40;;;;;;;16.98;14.95;;;;;;;-5.44;100.00;96894.00;5088649;28;20032;-61
2021/12/13 07:38:21;;;;;;;16.58;14.32;;;;;;;-5.37;100.00;96898.22;5088855;28;20040;-61
2021/12/13 07:40:54;;;;;;;25.63;15.05;;;;;;;-5.35;100.00;96901.63;5088035;28;20097;-61
2021/12/13 07:43:39;;;;;;;15.25;13.57;;;;;;;-5.36;100.00;96897.34;5088394;28;20036;-60
2021/12/13 07:46:19;;;;;;;15.38;13.70;;;;;;;-5.36;100.00;96905.88;5085767;28;20162;-62
2021/12/13 07:48:44;;;;;;;16.30;14.50;;;;;;;-5.37;100.00;96900.78;5078455;28;20051;-62
2021/12/13 07:51:17;;;;;;;15.43;13.80;;;;;;;-5.39;100.00;96903.34;5070609;28;20399;-52
2021/12/13 07:53:42;;;;;;;16.17;12.90;;;;;;;-5.40;100.00;96904.22;5089207;28;20076;-52
2021/12/13 07:56:10;;;;;;;15.40;13.55;;;;;;;-5.39;100.00;96907.66;5086989;28;20068;-52
2021/12/13 07:58:44;;;;;;;14.75;13.07;;;;;;;-5.40;100.00;96906.78;5088929;28;20069;-53
2021/12/13 08:01:21;;;;;;;14.43;12.93;;;;;;;-5.38;100.00;96904.22;5087123;28;20051;-52
2021/12/13 08:03:54;;;;;;;16.67;14.68;;;;;;;-5.38;100.00;96906.78;5090925;28;20035;-53
2021/12/13 08:06:22;;;;;;;21.20;17.10;;;;;;;-5.38;100.00;96906.78;5087691;28;20039;-53
2021/12/13 08:08:52;;;;;;;19.02;16.48;;;;;;;-5.38;100.00;96905.06;5091295;28;20039;-54
2021/12/13 08:11:31;;;;;;;23.90;16.75;;;;;;;-5.36;100.00;96903.31;5090188;28;20574;-53
2021/12/13 08:13:58;;;;;;;16.10;14.00;;;;;;;-5.29;100.00;96895.59;5091614;28;20063;-53
2021/12/13 08:16:37;;;;;;;13.55;12.25;;;;;;;-5.25;100.00;96898.09;5092028;28;20036;-52
2021/12/13 08:19:07;;;;;;;27.20;23.58;;;;;;;-5.16;100.00;96898.88;5091433;28;20448;-55
2021/12/13 08:21:39;;;;;;;44.10;32.45;;;;;;;-5.12;100.00;96898.78;5082666;28;20051;-53
2021/12/13 08:24:05;;;;;;;45.50;31.27;;;;;;;-5.07;100.00;96899.63;5091194;28;20042;-55
2021/12/13 08:26:40;;;;;;;40.25;27.60;;;;;;;-5.10;100.00;96893.66;5086905;28;20037;-55
2021/12/13 08:29:31;;;;;;;34.05;25.30;;;;;;;-5.09;100.00;96893.63;5084350;28;20036;-52
2021/12/13 08:32:00;;;;;;;31.90;24.60;;;;;;;-5.09;100.00;96898.75;5090159;28;20036;-53
2021/12/13 08:34:31;;;;;;;37.97;27.58;;;;;;;-5.07;100.00;96891.91;5074023;28;20078;-52
2021/12/13 08:36:59;;;;;;;42.53;30.42;;;;;;;-5.03;100.00;96896.16;5073678;28;20035;-55
2021/12/13 08:39:35;;;;;;;40.72;29.30;;;;;;;-5.01;100.00;96890.97;5091952;28;20031;-53
2021/12/13 08:42:19;;;;;;;45.05;31.65;;;;;;;-4.94;100.00;96892.63;5082973;28;20059;-53
2021/12/13 08:45:03;;;;;;;45.70;33.10;;;;;;;-4.93;100.00;96896.91;5065569;28;20056;-54
2021/12/13 08:47:47;;;;;;;45.10;32.70;;;;;;;-4.90;100.00;96896.84;5083938;28;20040;-55
2021/12/13 08:50:37;;;;;;;36.95;28.92;;;;;;;-4.91;100.00;96891.72;5066739;28;20040;-53
2021/12/13 08:53:08;;;;;;;38.75;29.50;;;;;;;-4.96;100.00;96889.22;5089564;28;20086;-55
2021/12/13 08:55:42;;;;;;;36.35;28.25;;;;;;;-5.00;100.00;96892.69;5088593;28;20044;-53
2021/12/13 08:58:14;;;;;;;26.65;21.90;;;;;;;-4.97;100.00;96897.81;5090227;28;20048;-51
2021/12/13 09:00:50;;;;;;;21.83;18.70;;;;;;;-4.93;100.00;96904.59;5090260;28;20028;-56
2021/12/13 09:03:20;;;;;;;24.80;20.45;;;;;;;-4.91;100.00;96905.44;5090260;28;20035;-53
2021/12/13 09:06:03;;;;;;;34.95;26.15;;;;;;;-4.88;100.00;96907.09;5090070;28;20020;-54
2021/12/13 09:08:35;;;;;;;27.30;24.42;;;;;;;-4.85;100.00;96912.22;5087303;28;20067;-54
2021/12/13 09:11:24;;;;;;;32.88;28.42;;;;;;;-4.77;100.00;96917.25;5088823;28;20594;-55
2021/12/13 09:13:59;;;;;;;36.53;31.13;;;;;;;-4.76;100.00;96908.66;5087284;28;20066;-53
2021/12/13 09:16:43;;;;;;;;;;;;;;;-4.75;100.00;96912.97;5089756;28;20475;-54
2021/12/13 09:19:32;;;;;;;30.80;27.38;;;;;;;-4.76;100.00;96906.09;5090505;28;20007;-54
2021/12/13 09:22:06;;;;;;;39.78;30.02;;;;;;;-4.76;100.00;96909.53;5089040;28;20032;-54
2021/12/13 09:24:47;;;;;;;31.83;26.00;;;;;;;-4.73;100.00;96910.38;5090830;28;20035;-54
2021/12/13 09:27:39;;;;;;;28.65;25.65;;;;;;;-4.69;100.00;96900.03;5087714;28;20457;-52
2021/12/13 09:30:25;;;;;;;33.58;28.83;;;;;;;-4.56;100.00;96898.16;5089503;28;20040;-52
2021/12/13 09:33:11;;;;;;;36.92;29.83;;;;;;;-4.10;100.00;96895.81;5072304;28;20422;-55
2021/12/13 09:35:39;;;;;;;32.33;28.02;;;;;;;-3.50;100.00;96889.72;5082266;28;20031;-54
2021/12/13 09:38:19;;;;;;;41.45;33.35;;;;;;;-3.00;100.00;96898.28;5090274;28;20085;-54
2021/12/13 09:40:56;;;;;;;44.20;36.45;;;;;;;-2.59;100.00;96896.63;5090406;28;20152;-55
2021/12/13 09:43:33;;;;;;;43.95;36.78;;;;;;;-2.20;100.00;96888.06;5090361;28;20036;-53
2021/12/13 09:45:59;;;;;;;46.08;37.20;;;;;;;-1.82;99.97;96894.09;5090471;28;20220;-55
2021/12/13 09:48:32;;;;;;;43.63;35.78;;;;;;;-1.62;98.26;96896.19;5086590;28;20046;-50
2021/12/13 09:51:04;;;;;;;61.28;50.30;;;;;;;-1.38;99.22;96895.63;5089364;28;20039;-51
2021/12/13 09:53:35;;;;;;;53.40;41.13;;;;;;;-1.17;97.60;96889.91;5089986;28;20040;-51
2021/12/13 09:56:06;;;;;;;46.85;35.63;;;;;;;-0.98;96.08;96899.75;5089941;28;20036;-52
2021/12/13 09:58:43;;;;;;;49.00;39.80;;;;;;;-0.83;96.67;96889.88;5089700;28;20063;-53
2021/12/13 10:01:20;;;;;;;50.85;39.08;;;;;;;-0.80;95.30;96890.63;5088616;28;20463;-54
2021/12/13 10:03:55;;;;;;;50.15;37.85;;;;;;;-0.70;97.43;96880.88;5088627;28;20056;-53
2021/12/13 10:06:41;;;;;;;23.60;18.77;;;;;;;-0.58;96.09;96890.03;5088495;28;20173;-53
2021/12/13 10:09:16;;;;;;;21.77;17.48;;;;;;;-0.52;96.05;96883.84;5088653;28;20423;-53
2021/12/13 10:11:50;;;;;;;18.65;16.75;;;;;;;-0.49;96.18;96879.41;5089514;28;20032;-53
2021/12/13 10:14:20;;;;;;;22.42;19.02;;;;;;;-0.30;95.03;96884.91;5086850;28;20039;-53
2021/12/13 10:16:49;;;;;;;23.40;20.63;;;;;;;-0.15;96.05;96890.50;5088653;28;20036;-53
2021/12/13 10:19:21;;;;;;;31.67;28.33;;;;;;;0.11;94.07;96887.13;5086714;28;20039;-51
2021/12/13 10:21:47;;;;;;;24.83;22.38;;;;;;;0.25;94.01;96883.25;5088615;28;20031;-52
2021/12/13 10:24:20;;;;;;;25.42;22.20;;;;;;;0.42;93.82;96880.94;5089134;28;20020;-54
2021/12/13 10:26:49;;;;;;;30.48;24.63;;;;;;;0.50;93.17;96875.50;5082733;28;20028;-53
2021/12/13 10:29:17;;;;;;;27.90;22.75;;;;;;;0.53;92.07;96862.44;5082531;28;20039;-54
2021/12/13 10:32:06;;;;;;;24.35;19.33;;;;;;;0.60;92.65;96867.44;5086691;28;20101;-53
2021/12/13 10:34:36;;;;;;;15.00;12.98;;;;;;;0.68;92.21;96868.03;5084162;28;20059;-53
2021/12/13 10:37:10;;;;;;;11.80;10.60;;;;;;;0.83;92.04;96875.28;5065775;28;20036;-53
2021/12/13 10:39:43;;;;;;;10.55;9.55;;;;;;;1.08;90.61;96869.22;5066364;28;20068;-51
2021/12/13 10:42:20;;;;;;;10.80;9.68;;;;;;;1.18;89.85;96869.75;5084288;28;20702;-52
2021/12/13 10:44:46;;;;;;;9.88;8.98;;;;;;;1.25;88.81;96867.78;5078216;28;20089;-54
2021/12/13 10:47:42;;;;;;;16.10;13.73;;;;;;;1.29;89.48;96865.00;5083424;28;20062;-52
2021/12/13 10:50:13;;;;;;;19.63;15.35;;;;;;;1.51;89.34;96863.38;5084019;28;20048;-53
2021/12/13 10:52:42;;;;;;;10.90;9.90;;;;;;;1.84;88.90;96853.47;5084302;28;20060;-53
2021/12/13 10:55:33;;;;;;;10.05;9.07;;;;;;;2.28;87.48;96859.56;5084370;28;20808;-51
2021/12/13 10:57:59;;;;;;;13.93;10.35;;;;;;;2.27;85.84;96850.06;5082883;28;20580;-52
2021/12/13 11:00:27;;;;;;;15.00;13.50;;;;;;;2.18;86.24;96847.84;5084211;28;20154;-54
2021/12/13 11:02:57;;;;;;;14.70;13.20;;;;;;;1.99;86.53;96846.81;5082868;28;20127;-54
2021/12/13 11:05:24;;;;;;;16.08;14.55;;;;;;;1.93;87.11;96851.41;5065526;28;20031;-51
2021/12/13 11:07:51;;;;;;;11.57;10.45;;;;;;;1.94;86.84;96851.38;5083829;28;20093;-53
2021/12/13 11:10:23;;;;;;;11.57;10.00;;;;;;;1.97;86.59;96851.25;5084766;28;20033;-54
2021/12/13 11:12:52;;;;;;;11.40;10.30;;;;;;;2.07;85.77;96838.72;5083452;28;20127;-51
2021/12/13 11:15:25;;;;;;;8.15;7.35;;;;;;;2.21;86.01;96840.78;5077338;28;20407;-52
2021/12/13 11:17:52;;;;;;;8.52;7.45;;;;;;;2.55;84.38;96836.78;5084988;28;20032;-53
2021/12/13 11:20:26;;;;;;;7.88;7.10;;;;;;;3.06;83.31;96833.78;5088634;28;20436;-56
2021/12/13 11:22:52;;;;;;;7.00;6.30;;;;;;;3.52;80.76;96830.03;5087492;28;20033;-52
2021/12/13 11:25:27;;;;;;;11.52;7.50;;;;;;;4.08;80.62;96830.88;5088453;28;20399;-53
2021/12/13 11:27:53;;;;;;;8.23;6.85;;;;;;;4.56;79.41;96825.09;5088453;28;20487;-54
2021/12/13 11:30:25;;;;;;;6.22;5.63;;;;;;;4.72;76.71;96820.78;5088854;28;20035;-53
2021/12/13 11:32:56;;;;;;;5.35;4.85;;;;;;;4.65;75.48;96826.41;5090988;28;20039;-55
2021/12/13 11:35:59;;;;;;;5.45;4.95;;;;;;;4.85;74.63;96821.00;5089845;28;20380;-54
2021/12/13 11:38:54;;;;;;;6.75;5.70;;;;;;;5.01;73.42;96815.84;5086335;28;20491;-51
2021/12/13 11:41:50;;;;;;;5.95;5.22;;;;;;;5.01;73.93;96807.19;5087676;28;20034;-55
2021/12/13 11:44:48;;;;;;;6.40;4.47;;;;;;;4.69;72.73;96812.25;5089352;28;20032;-54
2021/12/13 11:47:51;;;;;;;4.95;4.30;;;;;;;4.38;74.37;96808.59;5089988;28;20032;-54
2021/12/13 11:50:54;;;;;;;4.68;4.13;;;;;;;4.24;76.35;96804.91;5068823;28;20067;-52
2021/12/13 11:53:31;;;;;;;4.82;4.43;;;;;;;4.15;76.51;96802.75;5067974;28;20048;-53
2021/12/13 11:56:06;;;;;;;4.93;4.53;;;;;;;4.11;76.40;96793.41;5068354;28;20067;-52
2021/12/13 11:59:04;;;;;;;6.55;5.72;;;;;;;3.84;77.26;96799.00;5066037;28;20045;-54